Terminal Aerodrome Forecast
Issued by NWS

Home | Current Version | Previous Version | Graphics & Text | Print | Product List | Glossary On
Versions: 1 2 3 4 5 6 7 8 9 10 11 12 13 14 15 16 17 18 19 20
129
FTUS43 KMPX 252337
TAFAXN
TAF
KAXN 252337Z 2600/2624 15012KT P6SM SCT050
     FM260300 17006KT P6SM VCTS BKN060CB
     FM260700 20006KT P6SM BKN250
     FM261400 24012KT P6SM FEW250=

USA.gov is the U.S. government's official web portal to all federal, state and local government web resources and services.